sensor_id;sensor_type;location;lat;lon;timestamp;P1;durP1;ratioP1;P2;durP2;ratioP2
59770;SDS011;45649;53.014;6.600;2023-07-02T00:00:59;13.20;;;6.63;;
59770;SDS011;45649;53.014;6.600;2023-07-02T00:03:25;13.47;;;6.43;;
59770;SDS011;45649;53.014;6.600;2023-07-02T00:05:50;12.87;;;6.60;;
59770;SDS011;45649;53.014;6.600;2023-07-02T00:08:19;13.07;;;6.53;;
59770;SDS011;45649;53.014;6.600;2023-07-02T00:10:46;11.60;;;6.47;;
59770;SDS011;45649;53.014;6.600;2023-07-02T00:13:12;15.53;;;7.17;;
59770;SDS011;45649;53.014;6.600;2023-07-02T00:15:38;14.93;;;7.43;;
59770;SDS011;45649;53.014;6.600;2023-07-02T00:18:03;16.37;;;7.63;;
59770;SDS011;45649;53.014;6.600;2023-07-02T00:20:29;14.57;;;7.40;;
59770;SDS011;45649;53.014;6.600;2023-07-02T00:22:55;16.83;;;7.50;;
59770;SDS011;45649;53.014;6.600;2023-07-02T00:25:21;15.67;;;8.20;;
59770;SDS011;45649;53.014;6.600;2023-07-02T00:27:47;16.63;;;7.70;;
59770;SDS011;45649;53.014;6.600;2023-07-02T00:30:12;16.77;;;8.37;;
59770;SDS011;45649;53.014;6.600;2023-07-02T00:32:39;16.97;;;8.40;;
59770;SDS011;45649;53.014;6.600;2023-07-02T00:35:04;14.83;;;8.00;;
59770;SDS011;45649;53.014;6.600;2023-07-02T00:37:30;16.27;;;8.33;;
59770;SDS011;45649;53.014;6.600;2023-07-02T00:39:56;18.67;;;8.40;;
59770;SDS011;45649;53.014;6.600;2023-07-02T00:42:22;16.60;;;8.53;;
59770;SDS011;45649;53.014;6.600;2023-07-02T00:44:48;16.07;;;8.47;;
59770;SDS011;45649;53.014;6.600;2023-07-02T00:47:17;16.70;;;8.43;;
59770;SDS011;45649;53.014;6.600;2023-07-02T00:49:43;16.83;;;8.70;;
59770;SDS011;45649;53.014;6.600;2023-07-02T00:52:09;16.73;;;9.00;;
59770;SDS011;45649;53.014;6.600;2023-07-02T00:54:35;17.57;;;8.77;;
59770;SDS011;45649;53.014;6.600;2023-07-02T00:57:01;18.37;;;9.23;;
59770;SDS011;45649;53.014;6.600;2023-07-02T00:59:29;20.10;;;8.90;;
59770;SDS011;45649;53.014;6.600;2023-07-02T01:01:56;18.67;;;9.10;;
59770;SDS011;45649;53.014;6.600;2023-07-02T01:04:22;17.90;;;8.87;;
59770;SDS011;45649;53.014;6.600;2023-07-02T01:06:52;16.37;;;8.80;;
59770;SDS011;45649;53.014;6.600;2023-07-02T01:09:22;19.13;;;8.67;;
59770;SDS011;45649;53.014;6.600;2023-07-02T01:11:52;18.67;;;9.43;;
59770;SDS011;45649;53.014;6.600;2023-07-02T01:14:27;18.60;;;9.50;;
59770;SDS011;45649;53.014;6.600;2023-07-02T01:16:57;18.00;;;9.30;;
59770;SDS011;45649;53.014;6.600;2023-07-02T01:22:18;18.03;;;9.30;;
59770;SDS011;45649;53.014;6.600;2023-07-02T01:24:48;18.53;;;9.40;;
59770;SDS011;45649;53.014;6.600;2023-07-02T01:27:15;19.07;;;9.23;;
59770;SDS011;45649;53.014;6.600;2023-07-02T01:29:41;18.53;;;9.60;;
59770;SDS011;45649;53.014;6.600;2023-07-02T01:32:10;18.97;;;9.73;;
59770;SDS011;45649;53.014;6.600;2023-07-02T01:34:35;19.37;;;9.03;;
59770;SDS011;45649;53.014;6.600;2023-07-02T01:37:02;18.53;;;9.17;;
59770;SDS011;45649;53.014;6.600;2023-07-02T01:39:29;20.30;;;10.02;;
59770;SDS011;45649;53.014;6.600;2023-07-02T01:41:55;20.37;;;9.03;;
59770;SDS011;45649;53.014;6.600;2023-07-02T01:44:32;21.20;;;9.07;;
59770;SDS011;45649;53.014;6.600;2023-07-02T01:46:58;17.43;;;9.63;;
59770;SDS011;45649;53.014;6.600;2023-07-02T01:49:23;21.97;;;9.80;;
59770;SDS011;45649;53.014;6.600;2023-07-02T01:51:53;18.47;;;9.13;;
59770;SDS011;45649;53.014;6.600;2023-07-02T01:54:20;18.33;;;9.73;;
59770;SDS011;45649;53.014;6.600;2023-07-02T01:56:47;21.90;;;9.40;;
59770;SDS011;45649;53.014;6.600;2023-07-02T01:59:14;12.83;;;6.93;;
59770;SDS011;45649;53.014;6.600;2023-07-02T02:04:15;21.60;;;10.33;;
59770;SDS011;45649;53.014;6.600;2023-07-02T02:06:41;23.07;;;9.70;;
59770;SDS011;45649;53.014;6.600;2023-07-02T02:09:07;21.13;;;10.00;;
59770;SDS011;45649;53.014;6.600;2023-07-02T02:11:34;20.73;;;9.63;;
59770;SDS011;45649;53.014;6.600;2023-07-02T02:14:03;21.30;;;10.07;;
59770;SDS011;45649;53.014;6.600;2023-07-02T02:16:28;17.90;;;9.47;;
59770;SDS011;45649;53.014;6.600;2023-07-02T02:18:54;20.40;;;9.37;;
59770;SDS011;45649;53.014;6.600;2023-07-02T02:21:20;23.33;;;10.03;;
59770;SDS011;45649;53.014;6.600;2023-07-02T02:23:47;21.13;;;10.00;;
59770;SDS011;45649;53.014;6.600;2023-07-02T02:26:13;19.90;;;10.32;;
59770;SDS011;45649;53.014;6.600;2023-07-02T02:28:39;20.93;;;9.53;;
59770;SDS011;45649;53.014;6.600;2023-07-02T02:31:05;29.03;;;20.73;;
59770;SDS011;45649;53.014;6.600;2023-07-02T02:33:31;20.93;;;10.70;;
59770;SDS011;45649;53.014;6.600;2023-07-02T02:35:57;19.83;;;10.03;;
59770;SDS011;45649;53.014;6.600;2023-07-02T02:38:23;18.97;;;9.17;;
59770;SDS011;45649;53.014;6.600;2023-07-02T02:40:49;21.03;;;9.90;;
59770;SDS011;45649;53.014;6.600;2023-07-02T02:43:14;27.80;;;10.20;;
59770;SDS011;45649;53.014;6.600;2023-07-02T02:45:42;21.43;;;9.60;;
59770;SDS011;45649;53.014;6.600;2023-07-02T02:48:08;21.73;;;9.53;;
59770;SDS011;45649;53.014;6.600;2023-07-02T02:50:34;22.93;;;9.63;;
59770;SDS011;45649;53.014;6.600;2023-07-02T02:52:59;18.90;;;9.67;;
59770;SDS011;45649;53.014;6.600;2023-07-02T02:55:25;21.60;;;10.33;;
59770;SDS011;45649;53.014;6.600;2023-07-02T02:57:51;21.13;;;9.37;;
59770;SDS011;45649;53.014;6.600;2023-07-02T03:00:17;22.93;;;9.87;;
59770;SDS011;45649;53.014;6.600;2023-07-02T03:02:43;20.20;;;9.70;;
59770;SDS011;45649;53.014;6.600;2023-07-02T03:05:08;20.37;;;9.30;;
59770;SDS011;45649;53.014;6.600;2023-07-02T03:07:34;21.57;;;9.70;;
59770;SDS011;45649;53.014;6.600;2023-07-02T03:10:00;23.37;;;10.73;;
59770;SDS011;45649;53.014;6.600;2023-07-02T03:12:26;20.53;;;10.27;;
59770;SDS011;45649;53.014;6.600;2023-07-02T03:14:52;22.67;;;9.90;;
59770;SDS011;45649;53.014;6.600;2023-07-02T03:17:20;23.85;;;10.65;;
59770;SDS011;45649;53.014;6.600;2023-07-02T03:19:46;22.80;;;10.73;;
59770;SDS011;45649;53.014;6.600;2023-07-02T03:22:12;23.23;;;9.87;;
59770;SDS011;45649;53.014;6.600;2023-07-02T03:24:38;17.80;;;9.63;;
59770;SDS011;45649;53.014;6.600;2023-07-02T03:27:04;25.13;;;10.03;;
59770;SDS011;45649;53.014;6.600;2023-07-02T03:29:31;22.90;;;9.70;;
59770;SDS011;45649;53.014;6.600;2023-07-02T03:31:58;20.53;;;10.33;;
59770;SDS011;45649;53.014;6.600;2023-07-02T03:34:23;19.03;;;9.20;;
59770;SDS011;45649;53.014;6.600;2023-07-02T03:36:49;23.70;;;10.03;;
59770;SDS011;45649;53.014;6.600;2023-07-02T03:39:15;18.40;;;9.67;;
59770;SDS011;45649;53.014;6.600;2023-07-02T03:41:44;22.00;;;10.20;;
59770;SDS011;45649;53.014;6.600;2023-07-02T03:44:10;18.67;;;9.37;;
59770;SDS011;45649;53.014;6.600;2023-07-02T03:46:35;22.10;;;10.17;;
59770;SDS011;45649;53.014;6.600;2023-07-02T03:49:04;23.30;;;10.53;;
59770;SDS011;45649;53.014;6.600;2023-07-02T03:51:30;25.13;;;10.07;;
59770;SDS011;45649;53.014;6.600;2023-07-02T03:53:58;19.63;;;9.70;;
59770;SDS011;45649;53.014;6.600;2023-07-02T03:56:23;24.73;;;10.50;;
59770;SDS011;45649;53.014;6.600;2023-07-02T03:58:49;21.67;;;10.77;;
59770;SDS011;45649;53.014;6.600;2023-07-02T04:01:15;20.03;;;9.10;;
59770;SDS011;45649;53.014;6.600;2023-07-02T04:03:51;22.30;;;9.97;;
59770;SDS011;45649;53.014;6.600;2023-07-02T04:06:18;21.77;;;10.57;;
59770;SDS011;45649;53.014;6.600;2023-07-02T04:08:44;19.60;;;9.30;;
59770;SDS011;45649;53.014;6.600;2023-07-02T04:11:10;24.30;;;10.80;;
59770;SDS011;45649;53.014;6.600;2023-07-02T04:13:36;20.57;;;10.07;;
59770;SDS011;45649;53.014;6.600;2023-07-02T04:16:03;21.53;;;9.90;;
59770;SDS011;45649;53.014;6.600;2023-07-02T04:18:29;24.30;;;10.00;;
59770;SDS011;45649;53.014;6.600;2023-07-02T04:20:55;20.67;;;10.00;;
59770;SDS011;45649;53.014;6.600;2023-07-02T04:23:21;22.00;;;10.17;;
59770;SDS011;45649;53.014;6.600;2023-07-02T04:25:47;19.53;;;9.73;;
59770;SDS011;45649;53.014;6.600;2023-07-02T04:28:12;21.40;;;9.90;;
59770;SDS011;45649;53.014;6.600;2023-07-02T04:30:38;19.30;;;10.00;;
59770;SDS011;45649;53.014;6.600;2023-07-02T04:33:04;19.13;;;8.97;;
59770;SDS011;45649;53.014;6.600;2023-07-02T04:35:31;21.87;;;9.70;;
59770;SDS011;45649;53.014;6.600;2023-07-02T04:37:57;19.40;;;9.67;;
59770;SDS011;45649;53.014;6.600;2023-07-02T04:40:23;20.23;;;9.47;;
59770;SDS011;45649;53.014;6.600;2023-07-02T04:42:49;23.03;;;9.50;;
59770;SDS011;45649;53.014;6.600;2023-07-02T04:45:22;19.13;;;9.97;;
59770;SDS011;45649;53.014;6.600;2023-07-02T04:47:49;19.67;;;10.03;;
59770;SDS011;45649;53.014;6.600;2023-07-02T04:50:15;21.40;;;9.47;;
59770;SDS011;45649;53.014;6.600;2023-07-02T04:52:42;29.20;;;10.30;;
59770;SDS011;45649;53.014;6.600;2023-07-02T04:55:08;23.07;;;9.17;;
59770;SDS011;45649;53.014;6.600;2023-07-02T04:57:34;20.83;;;9.40;;
59770;SDS011;45649;53.014;6.600;2023-07-02T04:59:59;19.07;;;8.80;;
59770;SDS011;45649;53.014;6.600;2023-07-02T05:02:25;21.27;;;8.27;;
59770;SDS011;45649;53.014;6.600;2023-07-02T05:04:51;20.33;;;9.10;;
59770;SDS011;45649;53.014;6.600;2023-07-02T05:07:17;17.00;;;9.20;;
59770;SDS011;45649;53.014;6.600;2023-07-02T05:09:42;22.03;;;9.40;;
59770;SDS011;45649;53.014;6.600;2023-07-02T05:12:08;18.70;;;8.90;;
59770;SDS011;45649;53.014;6.600;2023-07-02T05:14:34;17.87;;;8.73;;
59770;SDS011;45649;53.014;6.600;2023-07-02T05:17:00;19.23;;;8.70;;
59770;SDS011;45649;53.014;6.600;2023-07-02T05:19:26;22.97;;;9.17;;
59770;SDS011;45649;53.014;6.600;2023-07-02T05:21:51;16.90;;;8.53;;
59770;SDS011;45649;53.014;6.600;2023-07-02T05:24:18;19.80;;;8.60;;
59770;SDS011;45649;53.014;6.600;2023-07-02T05:26:43;16.83;;;8.03;;
59770;SDS011;45649;53.014;6.600;2023-07-02T05:29:09;17.47;;;7.27;;
59770;SDS011;45649;53.014;6.600;2023-07-02T05:31:35;15.33;;;7.40;;
59770;SDS011;45649;53.014;6.600;2023-07-02T05:34:00;19.97;;;8.17;;
59770;SDS011;45649;53.014;6.600;2023-07-02T05:36:26;15.83;;;7.60;;
59770;SDS011;45649;53.014;6.600;2023-07-02T05:38:52;19.73;;;8.30;;
59770;SDS011;45649;53.014;6.600;2023-07-02T05:41:18;18.00;;;8.20;;
59770;SDS011;45649;53.014;6.600;2023-07-02T05:43:44;17.00;;;7.83;;
59770;SDS011;45649;53.014;6.600;2023-07-02T05:46:10;17.83;;;7.97;;
59770;SDS011;45649;53.014;6.600;2023-07-02T05:48:37;15.07;;;8.13;;
59770;SDS011;45649;53.014;6.600;2023-07-02T05:51:03;16.70;;;7.87;;
59770;SDS011;45649;53.014;6.600;2023-07-02T05:53:28;18.13;;;7.90;;
59770;SDS011;45649;53.014;6.600;2023-07-02T05:55:54;18.33;;;7.97;;
59770;SDS011;45649;53.014;6.600;2023-07-02T05:58:20;16.23;;;7.70;;
59770;SDS011;45649;53.014;6.600;2023-07-02T06:00:46;12.97;;;6.93;;
59770;SDS011;45649;53.014;6.600;2023-07-02T06:03:17;16.70;;;8.00;;
59770;SDS011;45649;53.014;6.600;2023-07-02T06:05:49;16.63;;;7.83;;
59770;SDS011;45649;53.014;6.600;2023-07-02T06:08:15;18.63;;;7.63;;
59770;SDS011;45649;53.014;6.600;2023-07-02T06:10:42;15.13;;;6.93;;
59770;SDS011;45649;53.014;6.600;2023-07-02T06:13:08;15.30;;;7.70;;
59770;SDS011;45649;53.014;6.600;2023-07-02T06:15:35;13.67;;;6.90;;
59770;SDS011;45649;53.014;6.600;2023-07-02T06:18:00;17.27;;;7.60;;
59770;SDS011;45649;53.014;6.600;2023-07-02T06:20:26;16.20;;;7.63;;
59770;SDS011;45649;53.014;6.600;2023-07-02T06:22:52;15.47;;;6.93;;
59770;SDS011;45649;53.014;6.600;2023-07-02T06:25:18;13.83;;;7.03;;
59770;SDS011;45649;53.014;6.600;2023-07-02T06:27:43;15.50;;;6.77;;
59770;SDS011;45649;53.014;6.600;2023-07-02T06:30:09;14.97;;;7.07;;
59770;SDS011;45649;53.014;6.600;2023-07-02T06:32:35;16.37;;;6.80;;
59770;SDS011;45649;53.014;6.600;2023-07-02T06:35:01;17.90;;;7.03;;
59770;SDS011;45649;53.014;6.600;2023-07-02T06:37:27;15.00;;;6.47;;
59770;SDS011;45649;53.014;6.600;2023-07-02T06:39:53;15.73;;;7.07;;
59770;SDS011;45649;53.014;6.600;2023-07-02T06:42:19;15.13;;;6.60;;
59770;SDS011;45649;53.014;6.600;2023-07-02T06:44:44;17.10;;;7.40;;
59770;SDS011;45649;53.014;6.600;2023-07-02T06:47:10;15.20;;;6.53;;
59770;SDS011;45649;53.014;6.600;2023-07-02T06:49:36;15.23;;;6.97;;
59770;SDS011;45649;53.014;6.600;2023-07-02T06:52:02;15.27;;;6.80;;
59770;SDS011;45649;53.014;6.600;2023-07-02T06:54:28;17.93;;;6.37;;
59770;SDS011;45649;53.014;6.600;2023-07-02T06:56:54;14.23;;;6.80;;
59770;SDS011;45649;53.014;6.600;2023-07-02T06:59:20;12.93;;;6.43;;
59770;SDS011;45649;53.014;6.600;2023-07-02T07:01:46;11.70;;;6.10;;
59770;SDS011;45649;53.014;6.600;2023-07-02T07:04:11;13.43;;;5.70;;
59770;SDS011;45649;53.014;6.600;2023-07-02T07:06:37;15.67;;;5.77;;
59770;SDS011;45649;53.014;6.600;2023-07-02T07:09:03;12.17;;;6.03;;
59770;SDS011;45649;53.014;6.600;2023-07-02T07:11:29;10.87;;;5.77;;
59770;SDS011;45649;53.014;6.600;2023-07-02T07:13:55;11.03;;;5.33;;
59770;SDS011;45649;53.014;6.600;2023-07-02T07:16:20;10.23;;;4.63;;
59770;SDS011;45649;53.014;6.600;2023-07-02T07:18:47;11.60;;;4.70;;
59770;SDS011;45649;53.014;6.600;2023-07-02T07:21:13;13.37;;;4.93;;
59770;SDS011;45649;53.014;6.600;2023-07-02T07:23:39;9.47;;;4.53;;
59770;SDS011;45649;53.014;6.600;2023-07-02T07:26:05;11.47;;;4.57;;
59770;SDS011;45649;53.014;6.600;2023-07-02T07:28:31;8.77;;;3.73;;
59770;SDS011;45649;53.014;6.600;2023-07-02T07:30:57;7.97;;;3.63;;
59770;SDS011;45649;53.014;6.600;2023-07-02T07:33:22;11.50;;;3.83;;
59770;SDS011;45649;53.014;6.600;2023-07-02T07:35:48;8.00;;;3.70;;
59770;SDS011;45649;53.014;6.600;2023-07-02T07:38:14;14.07;;;4.20;;
59770;SDS011;45649;53.014;6.600;2023-07-02T07:40:40;10.23;;;3.90;;
59770;SDS011;45649;53.014;6.600;2023-07-02T07:43:06;9.23;;;4.00;;
59770;SDS011;45649;53.014;6.600;2023-07-02T07:45:32;10.90;;;4.20;;
59770;SDS011;45649;53.014;6.600;2023-07-02T07:47:58;9.30;;;3.60;;
59770;SDS011;45649;53.014;6.600;2023-07-02T07:50:24;10.90;;;3.77;;
59770;SDS011;45649;53.014;6.600;2023-07-02T07:52:50;11.23;;;3.90;;
59770;SDS011;45649;53.014;6.600;2023-07-02T07:55:16;6.80;;;3.50;;
59770;SDS011;45649;53.014;6.600;2023-07-02T07:57:42;7.10;;;3.80;;
59770;SDS011;45649;53.014;6.600;2023-07-02T08:00:08;5.87;;;3.03;;
59770;SDS011;45649;53.014;6.600;2023-07-02T08:02:37;11.17;;;3.90;;
59770;SDS011;45649;53.014;6.600;2023-07-02T08:05:03;10.93;;;4.17;;
59770;SDS011;45649;53.014;6.600;2023-07-02T08:07:33;10.40;;;4.47;;
59770;SDS011;45649;53.014;6.600;2023-07-02T08:09:58;12.03;;;4.27;;
59770;SDS011;45649;53.014;6.600;2023-07-02T08:12:25;10.90;;;4.60;;
59770;SDS011;45649;53.014;6.600;2023-07-02T08:14:55;15.33;;;5.13;;
59770;SDS011;45649;53.014;6.600;2023-07-02T08:17:21;13.63;;;4.50;;
59770;SDS011;45649;53.014;6.600;2023-07-02T08:19:46;7.83;;;3.97;;
59770;SDS011;45649;53.014;6.600;2023-07-02T08:22:12;9.10;;;4.13;;
59770;SDS011;45649;53.014;6.600;2023-07-02T08:24:38;8.03;;;3.90;;
59770;SDS011;45649;53.014;6.600;2023-07-02T08:27:04;8.77;;;3.97;;
59770;SDS011;45649;53.014;6.600;2023-07-02T08:29:30;11.47;;;4.23;;
59770;SDS011;45649;53.014;6.600;2023-07-02T08:31:56;8.97;;;4.00;;
59770;SDS011;45649;53.014;6.600;2023-07-02T08:34:22;8.73;;;4.00;;
59770;SDS011;45649;53.014;6.600;2023-07-02T08:36:48;6.87;;;3.53;;
59770;SDS011;45649;53.014;6.600;2023-07-02T08:39:14;9.87;;;4.20;;
59770;SDS011;45649;53.014;6.600;2023-07-02T08:41:44;8.80;;;3.80;;
59770;SDS011;45649;53.014;6.600;2023-07-02T08:44:11;9.23;;;4.00;;
59770;SDS011;45649;53.014;6.600;2023-07-02T08:46:40;7.03;;;3.80;;
59770;SDS011;45649;53.014;6.600;2023-07-02T08:49:07;9.30;;;4.20;;
59770;SDS011;45649;53.014;6.600;2023-07-02T08:51:33;9.40;;;4.37;;
59770;SDS011;45649;53.014;6.600;2023-07-02T08:54:00;10.03;;;4.40;;
59770;SDS011;45649;53.014;6.600;2023-07-02T08:56:27;10.80;;;4.27;;
59770;SDS011;45649;53.014;6.600;2023-07-02T08:58:53;8.90;;;4.20;;
59770;SDS011;45649;53.014;6.600;2023-07-02T09:01:19;9.70;;;4.03;;
59770;SDS011;45649;53.014;6.600;2023-07-02T09:03:45;10.70;;;4.73;;
59770;SDS011;45649;53.014;6.600;2023-07-02T09:06:11;11.33;;;4.67;;
59770;SDS011;45649;53.014;6.600;2023-07-02T09:08:37;10.77;;;4.90;;
59770;SDS011;45649;53.014;6.600;2023-07-02T09:11:13;11.53;;;5.20;;
59770;SDS011;45649;53.014;6.600;2023-07-02T09:16:21;8.63;;;4.30;;
59770;SDS011;45649;53.014;6.600;2023-07-02T09:26:47;14.53;;;5.60;;
59770;SDS011;45649;53.014;6.600;2023-07-02T09:29:27;12.83;;;5.17;;
59770;SDS011;45649;53.014;6.600;2023-07-02T09:32:01;12.37;;;5.57;;
59770;SDS011;45649;53.014;6.600;2023-07-02T09:34:34;12.80;;;5.73;;
59770;SDS011;45649;53.014;6.600;2023-07-02T09:37:01;11.43;;;5.20;;
59770;SDS011;45649;53.014;6.600;2023-07-02T09:39:29;13.50;;;5.03;;
59770;SDS011;45649;53.014;6.600;2023-07-02T09:41:56;10.77;;;4.50;;
59770;SDS011;45649;53.014;6.600;2023-07-02T09:44:31;11.67;;;4.30;;
59770;SDS011;45649;53.014;6.600;2023-07-02T09:49:27;7.97;;;4.20;;
59770;SDS011;45649;53.014;6.600;2023-07-02T09:51:58;8.07;;;4.57;;
59770;SDS011;45649;53.014;6.600;2023-07-02T09:54:25;10.50;;;4.70;;
59770;SDS011;45649;53.014;6.600;2023-07-02T09:56:52;9.23;;;4.70;;
59770;SDS011;45649;53.014;6.600;2023-07-02T09:59:18;12.63;;;4.97;;
59770;SDS011;45649;53.014;6.600;2023-07-02T10:01:44;9.13;;;4.93;;
59770;SDS011;45649;53.014;6.600;2023-07-02T10:04:13;10.83;;;4.63;;
59770;SDS011;45649;53.014;6.600;2023-07-02T10:09:21;13.03;;;4.73;;
59770;SDS011;45649;53.014;6.600;2023-07-02T10:11:59;11.40;;;4.90;;
59770;SDS011;45649;53.014;6.600;2023-07-02T10:14:25;11.00;;;4.50;;
59770;SDS011;45649;53.014;6.600;2023-07-02T10:16:51;9.73;;;4.50;;
59770;SDS011;45649;53.014;6.600;2023-07-02T10:19:18;10.23;;;4.27;;
59770;SDS011;45649;53.014;6.600;2023-07-02T10:21:44;8.07;;;3.90;;
59770;SDS011;45649;53.014;6.600;2023-07-02T10:24:16;9.37;;;4.60;;
59770;SDS011;45649;53.014;6.600;2023-07-02T10:26:55;6.43;;;3.40;;
59770;SDS011;45649;53.014;6.600;2023-07-02T10:29:23;9.67;;;3.43;;
59770;SDS011;45649;53.014;6.600;2023-07-02T10:31:50;7.77;;;3.23;;
59770;SDS011;45649;53.014;6.600;2023-07-02T10:34:33;5.17;;;2.93;;
59770;SDS011;45649;53.014;6.600;2023-07-02T10:37:00;5.13;;;2.80;;
59770;SDS011;45649;53.014;6.600;2023-07-02T10:39:30;8.70;;;3.40;;
59770;SDS011;45649;53.014;6.600;2023-07-02T10:42:30;7.17;;;3.03;;
59770;SDS011;45649;53.014;6.600;2023-07-02T10:44:52;6.83;;;2.87;;
59770;SDS011;45649;53.014;6.600;2023-07-02T10:47:18;5.27;;;3.03;;
59770;SDS011;45649;53.014;6.600;2023-07-02T10:49:44;6.13;;;3.50;;
59770;SDS011;45649;53.014;6.600;2023-07-02T10:52:10;7.53;;;3.10;;
59770;SDS011;45649;53.014;6.600;2023-07-02T10:57:05;8.97;;;3.50;;
59770;SDS011;45649;53.014;6.600;2023-07-02T10:59:32;7.43;;;3.37;;
59770;SDS011;45649;53.014;6.600;2023-07-02T11:01:58;9.33;;;3.80;;
59770;SDS011;45649;53.014;6.600;2023-07-02T11:04:29;8.27;;;3.37;;
59770;SDS011;45649;53.014;6.600;2023-07-02T11:06:55;9.80;;;3.53;;
59770;SDS011;45649;53.014;6.600;2023-07-02T11:09:21;8.70;;;3.70;;
59770;SDS011;45649;53.014;6.600;2023-07-02T11:11:52;10.53;;;3.77;;
59770;SDS011;45649;53.014;6.600;2023-07-02T11:16:58;8.10;;;2.93;;
59770;SDS011;45649;53.014;6.600;2023-07-02T11:19:25;7.47;;;3.40;;
59770;SDS011;45649;53.014;6.600;2023-07-02T11:21:54;6.90;;;3.10;;
59770;SDS011;45649;53.014;6.600;2023-07-02T11:24:31;9.47;;;3.80;;
59770;SDS011;45649;53.014;6.600;2023-07-02T11:26:58;7.77;;;3.33;;
59770;SDS011;45649;53.014;6.600;2023-07-02T11:29:25;6.00;;;3.03;;
59770;SDS011;45649;53.014;6.600;2023-07-02T11:31:51;8.70;;;3.90;;
59770;SDS011;45649;53.014;6.600;2023-07-02T11:34:18;9.03;;;3.30;;
59770;SDS011;45649;53.014;6.600;2023-07-02T11:36:46;7.83;;;3.20;;
59770;SDS011;45649;53.014;6.600;2023-07-02T11:39:12;5.90;;;3.20;;
59770;SDS011;45649;53.014;6.600;2023-07-02T11:41:43;7.10;;;3.33;;
59770;SDS011;45649;53.014;6.600;2023-07-02T11:44:10;6.27;;;3.27;;
59770;SDS011;45649;53.014;6.600;2023-07-02T11:46:36;9.33;;;4.00;;
59770;SDS011;45649;53.014;6.600;2023-07-02T11:49:02;8.33;;;3.33;;
59770;SDS011;45649;53.014;6.600;2023-07-02T11:51:38;7.60;;;3.60;;
59770;SDS011;45649;53.014;6.600;2023-07-02T11:54:05;6.17;;;3.07;;
59770;SDS011;45649;53.014;6.600;2023-07-02T11:56:31;10.47;;;3.40;;
59770;SDS011;45649;53.014;6.600;2023-07-02T11:58:57;8.57;;;3.13;;
59770;SDS011;45649;53.014;6.600;2023-07-02T12:01:22;6.57;;;2.93;;
59770;SDS011;45649;53.014;6.600;2023-07-02T12:03:48;7.33;;;3.10;;
59770;SDS011;45649;53.014;6.600;2023-07-02T12:06:14;4.97;;;2.57;;
59770;SDS011;45649;53.014;6.600;2023-07-02T12:08:40;6.73;;;2.97;;
59770;SDS011;45649;53.014;6.600;2023-07-02T12:11:05;8.10;;;3.10;;
59770;SDS011;45649;53.014;6.600;2023-07-02T12:13:31;5.00;;;2.73;;
59770;SDS011;45649;53.014;6.600;2023-07-02T12:15:57;4.93;;;2.47;;
59770;SDS011;45649;53.014;6.600;2023-07-02T12:18:23;6.77;;;2.80;;
59770;SDS011;45649;53.014;6.600;2023-07-02T12:20:49;5.00;;;2.97;;
59770;SDS011;45649;53.014;6.600;2023-07-02T12:23:14;6.73;;;2.80;;
59770;SDS011;45649;53.014;6.600;2023-07-02T12:25:40;7.00;;;2.87;;
59770;SDS011;45649;53.014;6.600;2023-07-02T12:28:06;4.80;;;2.60;;
59770;SDS011;45649;53.014;6.600;2023-07-02T12:30:32;8.47;;;2.83;;
59770;SDS011;45649;53.014;6.600;2023-07-02T12:32:58;5.77;;;2.80;;
59770;SDS011;45649;53.014;6.600;2023-07-02T12:35:24;6.73;;;2.87;;
59770;SDS011;45649;53.014;6.600;2023-07-02T12:37:50;5.10;;;2.90;;
59770;SDS011;45649;53.014;6.600;2023-07-02T12:40:16;5.40;;;2.67;;
59770;SDS011;45649;53.014;6.600;2023-07-02T12:42:43;7.80;;;3.10;;
59770;SDS011;45649;53.014;6.600;2023-07-02T12:45:10;6.77;;;2.67;;
59770;SDS011;45649;53.014;6.600;2023-07-02T12:47:40;4.87;;;2.77;;
59770;SDS011;45649;53.014;6.600;2023-07-02T12:50:07;7.33;;;3.13;;
59770;SDS011;45649;53.014;6.600;2023-07-02T12:52:33;5.53;;;3.23;;
59770;SDS011;45649;53.014;6.600;2023-07-02T12:54:59;6.20;;;3.00;;
59770;SDS011;45649;53.014;6.600;2023-07-02T12:57:26;7.70;;;3.07;;
59770;SDS011;45649;53.014;6.600;2023-07-02T12:59:52;6.70;;;3.10;;
59770;SDS011;45649;53.014;6.600;2023-07-02T13:02:18;7.03;;;3.63;;
59770;SDS011;45649;53.014;6.600;2023-07-02T13:04:45;8.00;;;3.57;;
59770;SDS011;45649;53.014;6.600;2023-07-02T13:07:10;8.17;;;3.70;;
59770;SDS011;45649;53.014;6.600;2023-07-02T13:09:36;5.97;;;3.70;;
59770;SDS011;45649;53.014;6.600;2023-07-02T13:12:02;9.50;;;3.87;;
59770;SDS011;45649;53.014;6.600;2023-07-02T13:14:28;6.87;;;3.90;;
59770;SDS011;45649;53.014;6.600;2023-07-02T13:16:54;6.57;;;3.80;;
59770;SDS011;45649;53.014;6.600;2023-07-02T13:19:19;9.60;;;4.30;;
59770;SDS011;45649;53.014;6.600;2023-07-02T13:21:45;8.47;;;4.17;;
59770;SDS011;45649;53.014;6.600;2023-07-02T13:24:11;8.20;;;4.17;;
59770;SDS011;45649;53.014;6.600;2023-07-02T13:26:37;6.13;;;4.07;;
59770;SDS011;45649;53.014;6.600;2023-07-02T13:29:03;10.77;;;4.47;;
59770;SDS011;45649;53.014;6.600;2023-07-02T13:31:29;8.33;;;4.23;;
59770;SDS011;45649;53.014;6.600;2023-07-02T13:33:54;7.60;;;4.53;;
59770;SDS011;45649;53.014;6.600;2023-07-02T13:36:20;10.30;;;4.93;;
59770;SDS011;45649;53.014;6.600;2023-07-02T13:38:46;9.57;;;4.30;;
59770;SDS011;45649;53.014;6.600;2023-07-02T13:41:12;7.07;;;4.80;;
59770;SDS011;45649;53.014;6.600;2023-07-02T13:43:37;9.60;;;5.17;;
59770;SDS011;45649;53.014;6.600;2023-07-02T13:46:04;8.40;;;5.03;;
59770;SDS011;45649;53.014;6.600;2023-07-02T13:48:29;7.53;;;4.93;;
59770;SDS011;45649;53.014;6.600;2023-07-02T13:50:55;7.00;;;4.90;;
59770;SDS011;45649;53.014;6.600;2023-07-02T13:53:21;7.37;;;4.80;;
59770;SDS011;45649;53.014;6.600;2023-07-02T13:55:46;8.43;;;4.63;;
59770;SDS011;45649;53.014;6.600;2023-07-02T13:58:12;6.53;;;4.97;;
59770;SDS011;45649;53.014;6.600;2023-07-02T14:00:38;8.53;;;4.80;;
59770;SDS011;45649;53.014;6.600;2023-07-02T14:03:04;7.60;;;4.83;;
59770;SDS011;45649;53.014;6.600;2023-07-02T14:05:30;8.13;;;5.13;;
59770;SDS011;45649;53.014;6.600;2023-07-02T14:07:56;8.13;;;4.90;;
59770;SDS011;45649;53.014;6.600;2023-07-02T14:10:22;6.97;;;4.93;;
59770;SDS011;45649;53.014;6.600;2023-07-02T14:12:48;9.70;;;4.93;;
59770;SDS011;45649;53.014;6.600;2023-07-02T14:15:13;8.37;;;4.73;;
59770;SDS011;45649;53.014;6.600;2023-07-02T14:17:39;8.43;;;4.97;;
59770;SDS011;45649;53.014;6.600;2023-07-02T14:20:06;8.80;;;5.00;;
59770;SDS011;45649;53.014;6.600;2023-07-02T14:22:33;7.30;;;5.13;;
59770;SDS011;45649;53.014;6.600;2023-07-02T14:24:59;8.27;;;4.63;;
59770;SDS011;45649;53.014;6.600;2023-07-02T14:27:25;7.20;;;4.90;;
59770;SDS011;45649;53.014;6.600;2023-07-02T14:29:50;8.33;;;5.07;;
59770;SDS011;45649;53.014;6.600;2023-07-02T14:32:16;6.93;;;4.83;;
59770;SDS011;45649;53.014;6.600;2023-07-02T14:34:42;10.23;;;4.83;;
59770;SDS011;45649;53.014;6.600;2023-07-02T14:37:08;8.27;;;4.83;;
59770;SDS011;45649;53.014;6.600;2023-07-02T14:39:34;8.73;;;4.87;;
59770;SDS011;45649;53.014;6.600;2023-07-02T14:41:59;7.63;;;4.77;;
59770;SDS011;45649;53.014;6.600;2023-07-02T14:44:25;11.67;;;5.00;;
59770;SDS011;45649;53.014;6.600;2023-07-02T14:46:51;8.40;;;4.97;;
59770;SDS011;45649;53.014;6.600;2023-07-02T14:49:17;9.50;;;4.80;;
59770;SDS011;45649;53.014;6.600;2023-07-02T14:51:42;7.50;;;4.47;;
59770;SDS011;45649;53.014;6.600;2023-07-02T14:54:09;7.60;;;4.53;;
59770;SDS011;45649;53.014;6.600;2023-07-02T14:56:35;8.10;;;4.80;;
59770;SDS011;45649;53.014;6.600;2023-07-02T14:59:02;9.13;;;4.67;;
59770;SDS011;45649;53.014;6.600;2023-07-02T15:01:29;8.57;;;5.20;;